sensor_id;sensor_type;location;lat;lon;timestamp;P1;durP1;ratioP1;P2;durP2;ratioP2
16612;SDS011;8419;52.358;9.752;2024-01-06T00:00:37;17.77;;;10.48;;
16612;SDS011;8419;52.358;9.752;2024-01-06T00:03:23;18.77;;;11.10;;
16612;SDS011;8419;52.358;9.752;2024-01-06T00:06:10;17.40;;;11.07;;
16612;SDS011;8419;52.358;9.752;2024-01-06T00:08:57;15.40;;;10.23;;
16612;SDS011;8419;52.358;9.752;2024-01-06T00:14:49;17.27;;;10.70;;
16612;SDS011;8419;52.358;9.752;2024-01-06T00:17:35;17.12;;;10.98;;
16612;SDS011;8419;52.358;9.752;2024-01-06T00:20:20;14.55;;;10.15;;
16612;SDS011;8419;52.358;9.752;2024-01-06T00:23:05;15.98;;;10.40;;
16612;SDS011;8419;52.358;9.752;2024-01-06T00:25:51;15.82;;;10.63;;
16612;SDS011;8419;52.358;9.752;2024-01-06T00:28:37;17.45;;;9.70;;
16612;SDS011;8419;52.358;9.752;2024-01-06T00:31:23;15.70;;;9.98;;
16612;SDS011;8419;52.358;9.752;2024-01-06T00:34:14;17.15;;;10.20;;
16612;SDS011;8419;52.358;9.752;2024-01-06T00:37:00;15.90;;;10.07;;
16612;SDS011;8419;52.358;9.752;2024-01-06T00:39:45;18.77;;;10.23;;
16612;SDS011;8419;52.358;9.752;2024-01-06T00:42:31;17.33;;;10.07;;
16612;SDS011;8419;52.358;9.752;2024-01-06T00:45:16;15.13;;;10.05;;
16612;SDS011;8419;52.358;9.752;2024-01-06T00:48:02;17.08;;;10.43;;
16612;SDS011;8419;52.358;9.752;2024-01-06T00:50:48;16.85;;;9.45;;
16612;SDS011;8419;52.358;9.752;2024-01-06T00:53:33;14.85;;;10.13;;
16612;SDS011;8419;52.358;9.752;2024-01-06T00:56:21;17.33;;;10.48;;
16612;SDS011;8419;52.358;9.752;2024-01-06T00:59:06;15.45;;;10.07;;
16612;SDS011;8419;52.358;9.752;2024-01-06T01:01:52;15.75;;;10.23;;
16612;SDS011;8419;52.358;9.752;2024-01-06T01:04:40;14.45;;;9.65;;
16612;SDS011;8419;52.358;9.752;2024-01-06T01:07:25;15.65;;;9.80;;
16612;SDS011;8419;52.358;9.752;2024-01-06T01:10:11;16.70;;;10.18;;
16612;SDS011;8419;52.358;9.752;2024-01-06T01:12:57;17.20;;;10.32;;
16612;SDS011;8419;52.358;9.752;2024-01-06T01:15:42;15.60;;;9.98;;
16612;SDS011;8419;52.358;9.752;2024-01-06T01:18:28;14.27;;;9.70;;
16612;SDS011;8419;52.358;9.752;2024-01-06T01:21:14;16.25;;;9.77;;
16612;SDS011;8419;52.358;9.752;2024-01-06T01:24:00;14.07;;;9.88;;
16612;SDS011;8419;52.358;9.752;2024-01-06T01:26:46;16.52;;;10.18;;
16612;SDS011;8419;52.358;9.752;2024-01-06T01:29:32;16.80;;;10.40;;
16612;SDS011;8419;52.358;9.752;2024-01-06T01:32:18;15.30;;;9.60;;
16612;SDS011;8419;52.358;9.752;2024-01-06T01:35:05;16.83;;;10.27;;
16612;SDS011;8419;52.358;9.752;2024-01-06T01:37:51;15.25;;;10.48;;
16612;SDS011;8419;52.358;9.752;2024-01-06T01:40:40;15.63;;;9.90;;
16612;SDS011;8419;52.358;9.752;2024-01-06T01:43:26;14.90;;;10.32;;
16612;SDS011;8419;52.358;9.752;2024-01-06T01:46:15;16.65;;;10.10;;
16612;SDS011;8419;52.358;9.752;2024-01-06T01:49:01;16.75;;;9.85;;
16612;SDS011;8419;52.358;9.752;2024-01-06T01:51:47;14.70;;;9.05;;
16612;SDS011;8419;52.358;9.752;2024-01-06T01:54:34;14.82;;;9.55;;
16612;SDS011;8419;52.358;9.752;2024-01-06T01:57:20;15.68;;;9.07;;
16612;SDS011;8419;52.358;9.752;2024-01-06T02:00:11;15.23;;;9.50;;
16612;SDS011;8419;52.358;9.752;2024-01-06T02:03:02;16.62;;;9.80;;
16612;SDS011;8419;52.358;9.752;2024-01-06T02:05:48;15.18;;;9.50;;
16612;SDS011;8419;52.358;9.752;2024-01-06T02:08:34;15.55;;;9.80;;
16612;SDS011;8419;52.358;9.752;2024-01-06T02:11:19;16.35;;;10.80;;
16612;SDS011;8419;52.358;9.752;2024-01-06T02:14:05;16.20;;;9.60;;
16612;SDS011;8419;52.358;9.752;2024-01-06T02:16:50;16.15;;;9.63;;
16612;SDS011;8419;52.358;9.752;2024-01-06T02:19:35;18.45;;;9.88;;
16612;SDS011;8419;52.358;9.752;2024-01-06T02:22:23;13.77;;;9.40;;
16612;SDS011;8419;52.358;9.752;2024-01-06T02:25:10;15.70;;;9.48;;
16612;SDS011;8419;52.358;9.752;2024-01-06T02:27:57;15.65;;;9.75;;
16612;SDS011;8419;52.358;9.752;2024-01-06T02:30:43;16.60;;;9.85;;
16612;SDS011;8419;52.358;9.752;2024-01-06T02:33:29;15.07;;;9.75;;
16612;SDS011;8419;52.358;9.752;2024-01-06T02:36:16;16.42;;;9.77;;
16612;SDS011;8419;52.358;9.752;2024-01-06T02:39:01;17.42;;;9.85;;
16612;SDS011;8419;52.358;9.752;2024-01-06T02:41:47;16.45;;;9.48;;
16612;SDS011;8419;52.358;9.752;2024-01-06T02:44:32;15.68;;;9.43;;
16612;SDS011;8419;52.358;9.752;2024-01-06T02:47:18;15.07;;;9.15;;
16612;SDS011;8419;52.358;9.752;2024-01-06T02:50:05;15.40;;;9.00;;
16612;SDS011;8419;52.358;9.752;2024-01-06T02:52:51;16.92;;;9.95;;
16612;SDS011;8419;52.358;9.752;2024-01-06T02:55:37;15.95;;;9.95;;
16612;SDS011;8419;52.358;9.752;2024-01-06T02:58:23;16.25;;;8.60;;
16612;SDS011;8419;52.358;9.752;2024-01-06T03:01:10;15.25;;;8.77;;
16612;SDS011;8419;52.358;9.752;2024-01-06T03:03:56;14.23;;;8.63;;
16612;SDS011;8419;52.358;9.752;2024-01-06T03:06:42;14.48;;;9.25;;
16612;SDS011;8419;52.358;9.752;2024-01-06T03:09:27;17.62;;;10.10;;
16612;SDS011;8419;52.358;9.752;2024-01-06T03:12:12;15.23;;;8.30;;
16612;SDS011;8419;52.358;9.752;2024-01-06T03:14:58;16.35;;;10.05;;
16612;SDS011;8419;52.358;9.752;2024-01-06T03:17:43;16.10;;;9.32;;
16612;SDS011;8419;52.358;9.752;2024-01-06T03:20:29;14.05;;;9.45;;
16612;SDS011;8419;52.358;9.752;2024-01-06T03:23:15;14.77;;;9.27;;
16612;SDS011;8419;52.358;9.752;2024-01-06T03:26:05;15.80;;;9.75;;
16612;SDS011;8419;52.358;9.752;2024-01-06T03:28:51;15.82;;;9.25;;
16612;SDS011;8419;52.358;9.752;2024-01-06T03:31:41;14.13;;;8.77;;
16612;SDS011;8419;52.358;9.752;2024-01-06T03:34:27;17.95;;;9.15;;
16612;SDS011;8419;52.358;9.752;2024-01-06T03:37:13;17.52;;;9.13;;
16612;SDS011;8419;52.358;9.752;2024-01-06T03:39:58;16.37;;;9.40;;
16612;SDS011;8419;52.358;9.752;2024-01-06T03:42:43;13.62;;;9.23;;
16612;SDS011;8419;52.358;9.752;2024-01-06T03:45:28;15.77;;;10.25;;
16612;SDS011;8419;52.358;9.752;2024-01-06T03:48:15;14.73;;;9.35;;
16612;SDS011;8419;52.358;9.752;2024-01-06T03:51:04;18.27;;;9.27;;
16612;SDS011;8419;52.358;9.752;2024-01-06T03:53:49;16.10;;;10.20;;
16612;SDS011;8419;52.358;9.752;2024-01-06T03:56:34;15.48;;;9.70;;
16612;SDS011;8419;52.358;9.752;2024-01-06T03:59:21;15.45;;;9.63;;
16612;SDS011;8419;52.358;9.752;2024-01-06T04:02:10;14.43;;;9.48;;
16612;SDS011;8419;52.358;9.752;2024-01-06T04:04:56;15.63;;;9.23;;
16612;SDS011;8419;52.358;9.752;2024-01-06T04:07:42;16.45;;;10.45;;
16612;SDS011;8419;52.358;9.752;2024-01-06T04:10:27;15.88;;;9.68;;
16612;SDS011;8419;52.358;9.752;2024-01-06T04:13:15;15.45;;;9.60;;
16612;SDS011;8419;52.358;9.752;2024-01-06T04:16:01;14.93;;;9.77;;
16612;SDS011;8419;52.358;9.752;2024-01-06T04:18:47;17.10;;;10.18;;
16612;SDS011;8419;52.358;9.752;2024-01-06T04:21:32;16.17;;;9.63;;
16612;SDS011;8419;52.358;9.752;2024-01-06T04:24:17;16.50;;;9.60;;
16612;SDS011;8419;52.358;9.752;2024-01-06T04:27:03;19.30;;;10.80;;
16612;SDS011;8419;52.358;9.752;2024-01-06T04:29:49;15.50;;;10.23;;
16612;SDS011;8419;52.358;9.752;2024-01-06T04:32:37;17.17;;;9.90;;
16612;SDS011;8419;52.358;9.752;2024-01-06T04:35:23;17.23;;;10.13;;
16612;SDS011;8419;52.358;9.752;2024-01-06T04:38:09;16.62;;;10.23;;
16612;SDS011;8419;52.358;9.752;2024-01-06T04:40:56;17.15;;;9.95;;
16612;SDS011;8419;52.358;9.752;2024-01-06T04:43:41;16.05;;;10.13;;
16612;SDS011;8419;52.358;9.752;2024-01-06T04:46:28;16.85;;;9.85;;
16612;SDS011;8419;52.358;9.752;2024-01-06T04:49:15;20.10;;;11.10;;
16612;SDS011;8419;52.358;9.752;2024-01-06T04:52:00;15.75;;;10.30;;
16612;SDS011;8419;52.358;9.752;2024-01-06T04:54:45;17.48;;;10.23;;
16612;SDS011;8419;52.358;9.752;2024-01-06T04:57:31;17.33;;;10.07;;
16612;SDS011;8419;52.358;9.752;2024-01-06T05:00:17;15.05;;;9.82;;
16612;SDS011;8419;52.358;9.752;2024-01-06T05:03:02;18.77;;;10.30;;
16612;SDS011;8419;52.358;9.752;2024-01-06T05:05:51;14.70;;;9.10;;
16612;SDS011;8419;52.358;9.752;2024-01-06T05:08:37;17.75;;;9.98;;
16612;SDS011;8419;52.358;9.752;2024-01-06T05:11:28;16.45;;;9.13;;
16612;SDS011;8419;52.358;9.752;2024-01-06T05:14:13;20.92;;;11.48;;
16612;SDS011;8419;52.358;9.752;2024-01-06T05:16:59;15.23;;;9.32;;
16612;SDS011;8419;52.358;9.752;2024-01-06T05:19:45;16.27;;;10.00;;
16612;SDS011;8419;52.358;9.752;2024-01-06T05:22:33;17.33;;;10.07;;
16612;SDS011;8419;52.358;9.752;2024-01-06T05:25:18;19.30;;;10.40;;
16612;SDS011;8419;52.358;9.752;2024-01-06T05:28:04;17.60;;;9.70;;
16612;SDS011;8419;52.358;9.752;2024-01-06T05:30:50;17.25;;;10.40;;
16612;SDS011;8419;52.358;9.752;2024-01-06T05:33:36;18.40;;;9.63;;
16612;SDS011;8419;52.358;9.752;2024-01-06T05:36:21;18.42;;;10.65;;
16612;SDS011;8419;52.358;9.752;2024-01-06T05:39:07;19.77;;;10.73;;
16612;SDS011;8419;52.358;9.752;2024-01-06T05:41:52;17.73;;;10.15;;
16612;SDS011;8419;52.358;9.752;2024-01-06T05:44:38;15.60;;;9.75;;
16612;SDS011;8419;52.358;9.752;2024-01-06T05:47:27;18.70;;;10.60;;
16612;SDS011;8419;52.358;9.752;2024-01-06T05:50:15;16.08;;;9.38;;
16612;SDS011;8419;52.358;9.752;2024-01-06T05:53:03;17.00;;;9.40;;
16612;SDS011;8419;52.358;9.752;2024-01-06T05:55:48;19.20;;;9.82;;
16612;SDS011;8419;52.358;9.752;2024-01-06T05:58:35;17.55;;;9.48;;
16612;SDS011;8419;52.358;9.752;2024-01-06T06:01:20;15.85;;;8.65;;
16612;SDS011;8419;52.358;9.752;2024-01-06T06:04:06;17.27;;;9.30;;
16612;SDS011;8419;52.358;9.752;2024-01-06T06:06:53;18.73;;;11.05;;
16612;SDS011;8419;52.358;9.752;2024-01-06T06:09:38;15.85;;;9.57;;
16612;SDS011;8419;52.358;9.752;2024-01-06T06:12:24;17.15;;;10.13;;
16612;SDS011;8419;52.358;9.752;2024-01-06T06:15:10;16.62;;;9.35;;
16612;SDS011;8419;52.358;9.752;2024-01-06T06:17:55;16.85;;;9.63;;
16612;SDS011;8419;52.358;9.752;2024-01-06T06:20:44;15.23;;;9.88;;
16612;SDS011;8419;52.358;9.752;2024-01-06T06:23:29;20.98;;;10.63;;
16612;SDS011;8419;52.358;9.752;2024-01-06T06:26:14;18.67;;;10.10;;
16612;SDS011;8419;52.358;9.752;2024-01-06T06:29:00;15.75;;;9.18;;
16612;SDS011;8419;52.358;9.752;2024-01-06T06:31:45;15.23;;;9.73;;
16612;SDS011;8419;52.358;9.752;2024-01-06T06:34:31;19.00;;;10.55;;
16612;SDS011;8419;52.358;9.752;2024-01-06T06:37:16;18.58;;;10.70;;
16612;SDS011;8419;52.358;9.752;2024-01-06T06:40:04;22.50;;;10.57;;
16612;SDS011;8419;52.358;9.752;2024-01-06T06:42:51;18.90;;;10.27;;
16612;SDS011;8419;52.358;9.752;2024-01-06T06:45:37;19.70;;;10.25;;
16612;SDS011;8419;52.358;9.752;2024-01-06T06:48:22;20.08;;;10.63;;
16612;SDS011;8419;52.358;9.752;2024-01-06T06:51:08;18.42;;;10.65;;
16612;SDS011;8419;52.358;9.752;2024-01-06T06:53:55;16.42;;;10.35;;
16612;SDS011;8419;52.358;9.752;2024-01-06T06:56:40;20.30;;;10.90;;
16612;SDS011;8419;52.358;9.752;2024-01-06T06:59:26;17.73;;;10.07;;
16612;SDS011;8419;52.358;9.752;2024-01-06T07:02:14;18.33;;;10.27;;
16612;SDS011;8419;52.358;9.752;2024-01-06T07:05:00;21.02;;;11.40;;
16612;SDS011;8419;52.358;9.752;2024-01-06T07:07:45;19.58;;;10.68;;
16612;SDS011;8419;52.358;9.752;2024-01-06T07:10:33;20.00;;;11.12;;
16612;SDS011;8419;52.358;9.752;2024-01-06T07:13:22;21.05;;;10.15;;
16612;SDS011;8419;52.358;9.752;2024-01-06T07:16:07;19.48;;;11.30;;
16612;SDS011;8419;52.358;9.752;2024-01-06T07:19:01;22.58;;;10.82;;
16612;SDS011;8419;52.358;9.752;2024-01-06T07:21:47;21.10;;;11.52;;
16612;SDS011;8419;52.358;9.752;2024-01-06T07:24:32;21.83;;;11.82;;
16612;SDS011;8419;52.358;9.752;2024-01-06T07:27:17;23.45;;;11.65;;
16612;SDS011;8419;52.358;9.752;2024-01-06T07:30:09;22.25;;;11.38;;
16612;SDS011;8419;52.358;9.752;2024-01-06T07:32:56;24.35;;;11.88;;
16612;SDS011;8419;52.358;9.752;2024-01-06T07:35:42;18.87;;;11.52;;
16612;SDS011;8419;52.358;9.752;2024-01-06T07:38:28;21.85;;;11.90;;
16612;SDS011;8419;52.358;9.752;2024-01-06T07:41:15;25.12;;;12.02;;
16612;SDS011;8419;52.358;9.752;2024-01-06T07:44:05;19.60;;;10.73;;
16612;SDS011;8419;52.358;9.752;2024-01-06T07:46:50;23.77;;;10.95;;
16612;SDS011;8419;52.358;9.752;2024-01-06T07:49:36;19.60;;;11.30;;
16612;SDS011;8419;52.358;9.752;2024-01-06T07:52:22;23.12;;;11.10;;
16612;SDS011;8419;52.358;9.752;2024-01-06T07:55:10;23.62;;;12.40;;
16612;SDS011;8419;52.358;9.752;2024-01-06T07:57:55;23.62;;;12.98;;
16612;SDS011;8419;52.358;9.752;2024-01-06T08:00:40;24.98;;;12.57;;
16612;SDS011;8419;52.358;9.752;2024-01-06T08:03:26;23.87;;;12.45;;
16612;SDS011;8419;52.358;9.752;2024-01-06T08:06:12;23.17;;;11.23;;
16612;SDS011;8419;52.358;9.752;2024-01-06T08:08:59;22.55;;;12.75;;
16612;SDS011;8419;52.358;9.752;2024-01-06T08:11:45;18.80;;;10.82;;
16612;SDS011;8419;52.358;9.752;2024-01-06T08:14:32;21.00;;;11.93;;
16612;SDS011;8419;52.358;9.752;2024-01-06T08:17:17;21.35;;;11.45;;
16612;SDS011;8419;52.358;9.752;2024-01-06T08:20:06;19.55;;;10.57;;
16612;SDS011;8419;52.358;9.752;2024-01-06T08:22:53;23.90;;;11.85;;
16612;SDS011;8419;52.358;9.752;2024-01-06T08:25:39;20.98;;;11.25;;
16612;SDS011;8419;52.358;9.752;2024-01-06T08:28:25;25.83;;;12.52;;
16612;SDS011;8419;52.358;9.752;2024-01-06T08:31:10;24.90;;;12.25;;
16612;SDS011;8419;52.358;9.752;2024-01-06T08:33:56;24.58;;;11.27;;
16612;SDS011;8419;52.358;9.752;2024-01-06T08:36:44;21.75;;;11.68;;
16612;SDS011;8419;52.358;9.752;2024-01-06T08:39:32;22.52;;;11.25;;
16612;SDS011;8419;52.358;9.752;2024-01-06T08:42:17;22.08;;;11.38;;
16612;SDS011;8419;52.358;9.752;2024-01-06T08:45:02;27.98;;;11.60;;
16612;SDS011;8419;52.358;9.752;2024-01-06T08:47:49;19.80;;;11.73;;
16612;SDS011;8419;52.358;9.752;2024-01-06T08:50:34;23.87;;;11.77;;
16612;SDS011;8419;52.358;9.752;2024-01-06T08:53:20;20.67;;;11.55;;
16612;SDS011;8419;52.358;9.752;2024-01-06T08:56:05;20.23;;;11.20;;
16612;SDS011;8419;52.358;9.752;2024-01-06T08:58:51;24.00;;;11.23;;
16612;SDS011;8419;52.358;9.752;2024-01-06T09:01:37;19.40;;;10.55;;
16612;SDS011;8419;52.358;9.752;2024-01-06T09:04:23;21.50;;;11.25;;
16612;SDS011;8419;52.358;9.752;2024-01-06T09:07:09;22.60;;;10.88;;
16612;SDS011;8419;52.358;9.752;2024-01-06T09:09:55;23.58;;;11.45;;
16612;SDS011;8419;52.358;9.752;2024-01-06T09:12:40;19.15;;;10.43;;
16612;SDS011;8419;52.358;9.752;2024-01-06T09:15:25;18.85;;;9.70;;
16612;SDS011;8419;52.358;9.752;2024-01-06T09:18:10;18.50;;;10.93;;
16612;SDS011;8419;52.358;9.752;2024-01-06T09:20:59;16.77;;;10.20;;
16612;SDS011;8419;52.358;9.752;2024-01-06T09:23:45;19.27;;;9.65;;
16612;SDS011;8419;52.358;9.752;2024-01-06T09:26:30;15.98;;;9.23;;
16612;SDS011;8419;52.358;9.752;2024-01-06T09:29:15;19.75;;;9.70;;
16612;SDS011;8419;52.358;9.752;2024-01-06T09:32:01;16.02;;;9.43;;
16612;SDS011;8419;52.358;9.752;2024-01-06T09:34:47;18.45;;;9.45;;
16612;SDS011;8419;52.358;9.752;2024-01-06T09:37:34;19.37;;;10.15;;
16612;SDS011;8419;52.358;9.752;2024-01-06T09:40:20;15.50;;;8.82;;
16612;SDS011;8419;52.358;9.752;2024-01-06T09:43:08;15.18;;;8.60;;
16612;SDS011;8419;52.358;9.752;2024-01-06T09:45:55;13.65;;;8.30;;
16612;SDS011;8419;52.358;9.752;2024-01-06T09:48:46;19.45;;;9.40;;
16612;SDS011;8419;52.358;9.752;2024-01-06T09:51:36;17.25;;;9.52;;
16612;SDS011;8419;52.358;9.752;2024-01-06T09:54:24;17.02;;;9.35;;
16612;SDS011;8419;52.358;9.752;2024-01-06T09:57:13;15.10;;;8.88;;
16612;SDS011;8419;52.358;9.752;2024-01-06T09:59:59;14.10;;;8.40;;
16612;SDS011;8419;52.358;9.752;2024-01-06T10:02:48;14.05;;;8.05;;
16612;SDS011;8419;52.358;9.752;2024-01-06T10:05:35;12.68;;;8.13;;
16612;SDS011;8419;52.358;9.752;2024-01-06T10:08:20;16.35;;;8.27;;
16612;SDS011;8419;52.358;9.752;2024-01-06T10:11:11;12.70;;;8.02;;
16612;SDS011;8419;52.358;9.752;2024-01-06T10:14:01;12.35;;;7.50;;
16612;SDS011;8419;52.358;9.752;2024-01-06T10:16:47;13.82;;;7.97;;
16612;SDS011;8419;52.358;9.752;2024-01-06T10:19:34;16.45;;;8.55;;
16612;SDS011;8419;52.358;9.752;2024-01-06T10:22:26;14.13;;;8.55;;
16612;SDS011;8419;52.358;9.752;2024-01-06T10:25:16;13.88;;;7.95;;
16612;SDS011;8419;52.358;9.752;2024-01-06T10:28:02;12.90;;;7.22;;
16612;SDS011;8419;52.358;9.752;2024-01-06T10:30:48;13.48;;;7.60;;
16612;SDS011;8419;52.358;9.752;2024-01-06T10:33:34;13.23;;;7.65;;
16612;SDS011;8419;52.358;9.752;2024-01-06T10:36:21;14.25;;;7.57;;
16612;SDS011;8419;52.358;9.752;2024-01-06T10:39:07;14.75;;;8.25;;
16612;SDS011;8419;52.358;9.752;2024-01-06T10:41:54;13.70;;;8.55;;
16612;SDS011;8419;52.358;9.752;2024-01-06T10:44:43;13.40;;;8.98;;
16612;SDS011;8419;52.358;9.752;2024-01-06T10:47:31;15.60;;;8.80;;
16612;SDS011;8419;52.358;9.752;2024-01-06T10:50:21;13.00;;;8.38;;
16612;SDS011;8419;52.358;9.752;2024-01-06T10:53:07;15.90;;;8.80;;
16612;SDS011;8419;52.358;9.752;2024-01-06T10:55:57;15.80;;;9.15;;
16612;SDS011;8419;52.358;9.752;2024-01-06T10:58:45;17.33;;;8.45;;
16612;SDS011;8419;52.358;9.752;2024-01-06T11:01:33;16.20;;;8.65;;
16612;SDS011;8419;52.358;9.752;2024-01-06T11:04:21;16.23;;;8.57;;
16612;SDS011;8419;52.358;9.752;2024-01-06T11:07:07;14.98;;;9.00;;
16612;SDS011;8419;52.358;9.752;2024-01-06T11:09:55;16.92;;;9.30;;
16612;SDS011;8419;52.358;9.752;2024-01-06T11:12:42;15.15;;;8.82;;
16612;SDS011;8419;52.358;9.752;2024-01-06T11:15:43;14.45;;;8.73;;
16612;SDS011;8419;52.358;9.752;2024-01-06T11:18:33;16.05;;;8.82;;
16612;SDS011;8419;52.358;9.752;2024-01-06T11:21:25;18.00;;;10.02;;
16612;SDS011;8419;52.358;9.752;2024-01-06T11:24:14;16.00;;;8.68;;
16612;SDS011;8419;52.358;9.752;2024-01-06T11:27:04;18.70;;;9.57;;
16612;SDS011;8419;52.358;9.752;2024-01-06T11:29:53;17.30;;;9.68;;
16612;SDS011;8419;52.358;9.752;2024-01-06T11:32:40;22.02;;;11.80;;
16612;SDS011;8419;52.358;9.752;2024-01-06T11:35:29;16.55;;;9.80;;
16612;SDS011;8419;52.358;9.752;2024-01-06T11:38:15;16.48;;;9.40;;
16612;SDS011;8419;52.358;9.752;2024-01-06T11:41:06;17.17;;;8.75;;
16612;SDS011;8419;52.358;9.752;2024-01-06T11:43:53;18.37;;;9.10;;
16612;SDS011;8419;52.358;9.752;2024-01-06T11:46:38;16.42;;;8.75;;
16612;SDS011;8419;52.358;9.752;2024-01-06T11:49:27;12.77;;;8.25;;
16612;SDS011;8419;52.358;9.752;2024-01-06T11:52:15;15.00;;;8.23;;
16612;SDS011;8419;52.358;9.752;2024-01-06T11:55:01;14.18;;;9.18;;
16612;SDS011;8419;52.358;9.752;2024-01-06T11:57:47;13.15;;;8.40;;
16612;SDS011;8419;52.358;9.752;2024-01-06T12:00:34;14.45;;;7.93;;
16612;SDS011;8419;52.358;9.752;2024-01-06T12:03:20;12.43;;;7.47;;
16612;SDS011;8419;52.358;9.752;2024-01-06T12:06:07;13.23;;;7.60;;
16612;SDS011;8419;52.358;9.752;2024-01-06T12:09:03;14.98;;;7.82;;
16612;SDS011;8419;52.358;9.752;2024-01-06T12:11:49;14.50;;;7.87;;
16612;SDS011;8419;52.358;9.752;2024-01-06T12:14:46;14.93;;;8.07;;
16612;SDS011;8419;52.358;9.752;2024-01-06T12:17:32;16.00;;;7.85;;
16612;SDS011;8419;52.358;9.752;2024-01-06T12:20:20;16.08;;;8.48;;
16612;SDS011;8419;52.358;9.752;2024-01-06T12:23:07;14.38;;;8.20;;
16612;SDS011;8419;52.358;9.752;2024-01-06T12:25:52;16.35;;;8.40;;
16612;SDS011;8419;52.358;9.752;2024-01-06T12:28:37;15.38;;;8.50;;
16612;SDS011;8419;52.358;9.752;2024-01-06T12:31:23;13.68;;;7.55;;
16612;SDS011;8419;52.358;9.752;2024-01-06T12:34:11;13.50;;;8.27;;
16612;SDS011;8419;52.358;9.752;2024-01-06T12:36:57;15.80;;;7.62;;
16612;SDS011;8419;52.358;9.752;2024-01-06T12:39:42;15.35;;;8.60;;
16612;SDS011;8419;52.358;9.752;2024-01-06T12:42:29;15.15;;;8.57;;
16612;SDS011;8419;52.358;9.752;2024-01-06T12:45:20;17.17;;;9.05;;
16612;SDS011;8419;52.358;9.752;2024-01-06T12:48:07;17.12;;;7.82;;
16612;SDS011;8419;52.358;9.752;2024-01-06T12:50:58;17.35;;;9.18;;
16612;SDS011;8419;52.358;9.752;2024-01-06T12:53:43;15.75;;;8.60;;
16612;SDS011;8419;52.358;9.752;2024-01-06T12:56:29;15.50;;;9.05;;
16612;SDS011;8419;52.358;9.752;2024-01-06T12:59:14;16.85;;;9.10;;
16612;SDS011;8419;52.358;9.752;2024-01-06T13:02:00;16.77;;;8.55;;
16612;SDS011;8419;52.358;9.752;2024-01-06T13:04:48;16.67;;;8.70;;
16612;SDS011;8419;52.358;9.752;2024-01-06T13:07:34;18.17;;;9.02;;
16612;SDS011;8419;52.358;9.752;2024-01-06T13:10:20;16.52;;;8.35;;
16612;SDS011;8419;52.358;9.752;2024-01-06T13:13:05;16.10;;;8.95;;
16612;SDS011;8419;52.358;9.752;2024-01-06T13:15:51;18.12;;;8.70;;
16612;SDS011;8419;52.358;9.752;2024-01-06T13:18:36;17.98;;;8.70;;
16612;SDS011;8419;52.358;9.752;2024-01-06T13:21:22;18.20;;;10.10;;
16612;SDS011;8419;52.358;9.752;2024-01-06T13:24:08;17.35;;;9.43;;
16612;SDS011;8419;52.358;9.752;2024-01-06T13:27:06;17.40;;;9.13;;
16612;SDS011;8419;52.358;9.752;2024-01-06T13:29:53;17.50;;;9.37;;
16612;SDS011;8419;52.358;9.752;2024-01-06T13:32:39;16.48;;;9.05;;
16612;SDS011;8419;52.358;9.752;2024-01-06T13:35:24;18.93;;;9.70;;
16612;SDS011;8419;52.358;9.752;2024-01-06T13:38:10;18.08;;;9.35;;
16612;SDS011;8419;52.358;9.752;2024-01-06T13:41:01;13.40;;;7.93;;
16612;SDS011;8419;52.358;9.752;2024-01-06T13:43:51;17.95;;;9.30;;
16612;SDS011;8419;52.358;9.752;2024-01-06T13:46:37;18.45;;;9.05;;
16612;SDS011;8419;52.358;9.752;2024-01-06T13:49:25;16.55;;;9.10;;
16612;SDS011;8419;52.358;9.752;2024-01-06T13:52:11;15.73;;;8.07;;
16612;SDS011;8419;52.358;9.752;2024-01-06T13:54:57;16.62;;;8.68;;
16612;SDS011;8419;52.358;9.752;2024-01-06T13:57:44;17.35;;;9.23;;
16612;SDS011;8419;52.358;9.752;2024-01-06T14:00:29;16.33;;;8.63;;
16612;SDS011;8419;52.358;9.752;2024-01-06T14:03:16;16.05;;;8.88;;
16612;SDS011;8419;52.358;9.752;2024-01-06T14:06:02;16.55;;;8.73;;
16612;SDS011;8419;52.358;9.752;2024-01-06T14:08:51;14.93;;;8.45;;
16612;SDS011;8419;52.358;9.752;2024-01-06T14:11:37;13.90;;;8.13;;
16612;SDS011;8419;52.358;9.752;2024-01-06T14:14:23;15.80;;;7.70;;
16612;SDS011;8419;52.358;9.752;2024-01-06T14:17:08;16.10;;;8.45;;
16612;SDS011;8419;52.358;9.752;2024-01-06T14:19:54;15.65;;;8.30;;
16612;SDS011;8419;52.358;9.752;2024-01-06T14:22:40;13.90;;;8.70;;
16612;SDS011;8419;52.358;9.752;2024-01-06T14:25:25;12.50;;;7.90;;
16612;SDS011;8419;52.358;9.752;2024-01-06T14:28:10;15.65;;;8.52;;
16612;SDS011;8419;52.358;9.752;2024-01-06T14:31:00;13.13;;;8.07;;
16612;SDS011;8419;52.358;9.752;2024-01-06T14:33:46;13.95;;;7.65;;
16612;SDS011;8419;52.358;9.752;2024-01-06T14:36:31;14.70;;;8.38;;
16612;SDS011;8419;52.358;9.752;2024-01-06T14:39:16;14.30;;;7.97;;
16612;SDS011;8419;52.358;9.752;2024-01-06T14:42:06;15.23;;;9.30;;
16612;SDS011;8419;52.358;9.752;2024-01-06T14:44:52;12.25;;;8.27;;
16612;SDS011;8419;52.358;9.752;2024-01-06T14:47:37;14.33;;;8.00;;
16612;SDS011;8419;52.358;9.752;2024-01-06T14:50:23;12.68;;;7.40;;
16612;SDS011;8419;52.358;9.752;2024-01-06T14:53:09;14.02;;;8.50;;
16612;SDS011;8419;52.358;9.752;2024-01-06T14:55:54;12.65;;;7.50;;
16612;SDS011;8419;52.358;9.752;2024-01-06T14:58:41;12.50;;;7.15;;
16612;SDS011;8419;52.358;9.752;2024-01-06T15:01:26;13.10;;;7.80;;
16612;SDS011;8419;52.358;9.752;2024-01-06T15:04:12;12.13;;;7.72;;
16612;SDS011;8419;52.358;9.752;2024-01-06T15:06:59;14.05;;;8.20;;
16612;SDS011;8419;52.358;9.752;2024-01-06T15:09:46;12.27;;;7.47;;
16612;SDS011;8419;52.358;9.752;2024-01-06T15:12:32;13.00;;;6.80;;
16612;SDS011;8419;52.358;9.752;2024-01-06T15:15:17;13.32;;;8.07;;
16612;SDS011;8419;52.358;9.752;2024-01-06T15:18:05;11.53;;;7.13;;
16612;SDS011;8419;52.358;9.752;2024-01-06T15:20:52;16.58;;;7.82;;
16612;SDS011;8419;52.358;9.752;2024-01-06T15:23:39;12.98;;;7.57;;
16612;SDS011;8419;52.358;9.752;2024-01-06T15:26:24;13.03;;;7.83;;
16612;SDS011;8419;52.358;9.752;2024-01-06T15:29:10;13.43;;;7.30;;
16612;SDS011;8419;52.358;9.752;2024-01-06T15:31:56;12.77;;;8.40;;
16612;SDS011;8419;52.358;9.752;2024-01-06T15:34:42;10.50;;;6.82;;
16612;SDS011;8419;52.358;9.752;2024-01-06T15:37:29;12.37;;;7.50;;
16612;SDS011;8419;52.358;9.752;2024-01-06T15:40:15;14.57;;;7.68;;
16612;SDS011;8419;52.358;9.752;2024-01-06T15:43:01;12.73;;;7.60;;
16612;SDS011;8419;52.358;9.752;2024-01-06T15:45:49;15.85;;;7.28;;
16612;SDS011;8419;52.358;9.752;2024-01-06T15:48:35;10.82;;;7.00;;
16612;SDS011;8419;52.358;9.752;2024-01-06T15:51:21;15.75;;;7.80;;
16612;SDS011;8419;52.358;9.752;2024-01-06T15:54:07;14.73;;;8.55;;
16612;SDS011;8419;52.358;9.752;2024-01-06T15:56:53;12.35;;;7.25;;
16612;SDS011;8419;52.358;9.752;2024-01-06T15:59:41;12.03;;;6.77;;
16612;SDS011;8419;52.358;9.752;2024-01-06T16:02:27;14.90;;;7.90;;
16612;SDS011;8419;52.358;9.752;2024-01-06T16:05:14;12.47;;;7.57;;
16612;SDS011;8419;52.358;9.752;2024-01-06T16:08:01;13.10;;;7.33;;
16612;SDS011;8419;52.358;9.752;2024-01-06T16:10:47;12.13;;;7.17;;
16612;SDS011;8419;52.358;9.752;2024-01-06T16:13:33;14.17;;;8.67;;
16612;SDS011;8419;52.358;9.752;2024-01-06T16:16:19;13.13;;;8.50;;
16612;SDS011;8419;52.358;9.752;2024-01-06T16:19:06;16.70;;;8.40;;
16612;SDS011;8419;52.358;9.752;2024-01-06T16:21:52;17.07;;;7.90;;
16612;SDS011;8419;52.358;9.752;2024-01-06T16:24:40;17.77;;;9.20;;
16612;SDS011;8419;52.358;9.752;2024-01-06T16:27:25;15.40;;;9.13;;
16612;SDS011;8419;52.358;9.752;2024-01-06T16:30:12;15.90;;;9.53;;
16612;SDS011;8419;52.358;9.752;2024-01-06T16:33:00;18.47;;;10.40;;
16612;SDS011;8419;52.358;9.752;2024-01-06T16:35:47;16.70;;;9.57;;
16612;SDS011;8419;52.358;9.752;2024-01-06T16:38:33;17.40;;;9.23;;
16612;SDS011;8419;52.358;9.752;2024-01-06T16:41:19;15.70;;;9.20;;